Terminal Aerodrome Forecast
Issued by NWS Cleveland, OH

Home | Current Version | Previous Version | Graphics & Text | Print | Product List | Glossary On
Versions: 1 2 3 4 5 6 7 8 9 10 11 12 13 14 15 16 17
501
FTUS41 KCLE 172343
TAFERI
TAF
KERI 172343Z 1800/1824 21004KT P6SM OVC035
      TEMPO 1801/1803 4SM -SN
     FM180500 25007KT P6SM OVC025
     FM180800 25008KT P6SM OVC007
     FM181200 25008KT P6SM OVC015
     FM181800 21006KT P6SM FEW250=

USA.gov is the U.S. government's official web portal to all federal, state and local government web resources and services.